createdAt,value
2018-04-30T00:02:24.651Z,9.90
2018-04-30T00:04:52.330Z,10.10
2018-04-30T00:07:20.129Z,10.20
2018-04-30T00:09:47.801Z,9.90
2018-04-30T00:12:18.797Z,9.60
2018-04-30T00:14:47.260Z,10.00
2018-04-30T00:17:15.002Z,10.10
2018-04-30T00:19:43.421Z,10.00
2018-04-30T00:22:11.060Z,9.90
2018-04-30T00:24:39.646Z,10.10
2018-04-30T00:27:07.372Z,10.30
2018-04-30T00:29:35.096Z,9.90
2018-04-30T00:32:02.887Z,9.90
2018-04-30T00:34:30.693Z,10.10
2018-04-30T00:36:58.511Z,9.80
2018-04-30T00:39:27.860Z,9.60
2018-04-30T00:41:55.732Z,9.80
2018-04-30T00:44:24.296Z,10.00
2018-04-30T00:46:52.762Z,9.80
2018-04-30T00:49:22.818Z,9.60
2018-04-30T00:51:50.495Z,9.60
2018-04-30T00:54:29.743Z,10.00
2018-04-30T00:56:58.195Z,10.00
2018-04-30T00:59:25.862Z,10.10
2018-04-30T01:01:53.548Z,9.90
2018-04-30T01:04:21.245Z,9.60
2018-04-30T01:06:49.375Z,9.80
2018-04-30T01:09:20.997Z,10.10
2018-04-30T01:11:48.731Z,10.00
2018-04-30T01:14:17.342Z,9.70
2018-04-30T01:16:45.152Z,9.90
2018-04-30T01:19:13.614Z,10.10
2018-04-30T01:21:41.402Z,10.00
2018-04-30T01:24:09.112Z,9.90
2018-04-30T01:26:36.800Z,9.80
2018-04-30T01:29:04.516Z,10.10
2018-04-30T01:31:32.220Z,10.10
2018-04-30T01:34:00.009Z,9.90
2018-04-30T01:36:29.218Z,9.70
2018-04-30T01:38:56.934Z,9.90
2018-04-30T01:41:25.005Z,9.70
2018-04-30T01:43:52.828Z,9.80
2018-04-30T01:46:25.842Z,10.10
2018-04-30T01:48:53.605Z,9.80
2018-04-30T01:51:22.013Z,10.20
2018-04-30T01:53:49.897Z,10.10
2018-04-30T01:56:18.347Z,10.10
2018-04-30T01:58:46.106Z,9.80
2018-04-30T02:01:14.815Z,10.00
2018-04-30T02:03:43.373Z,9.80
2018-04-30T02:06:12.526Z,9.80
2018-04-30T02:08:40.187Z,9.60
2018-04-30T02:11:09.028Z,9.70
2018-04-30T02:13:36.789Z,9.80
2018-04-30T02:16:04.547Z,9.60
2018-04-30T02:18:33.061Z,9.60
2018-04-30T02:29:58.892Z,9.80
2018-04-30T02:32:26.542Z,9.90
2018-04-30T02:34:55.187Z,9.90
2018-04-30T02:37:23.513Z,9.80
2018-04-30T02:39:52.082Z,10.20
2018-04-30T02:42:21.796Z,10.10
2018-04-30T02:44:50.672Z,10.20
2018-04-30T02:47:18.480Z,9.90
2018-04-30T02:49:46.317Z,9.70
2018-04-30T02:52:14.758Z,9.90
2018-04-30T02:54:42.445Z,9.90
2018-04-30T02:57:10.299Z,10.00
2018-04-30T02:59:37.978Z,10.10
2018-04-30T03:02:06.518Z,10.00
2018-04-30T03:04:34.221Z,10.00
2018-04-30T03:07:02.041Z,10.10
2018-04-30T03:09:29.753Z,9.80
2018-04-30T03:11:57.433Z,10.10
2018-04-30T03:14:25.881Z,10.00
2018-04-30T03:16:55.463Z,10.00
2018-04-30T03:19:24.414Z,10.00
2018-04-30T03:21:52.095Z,10.10
2018-04-30T03:24:20.547Z,10.20
2018-04-30T03:26:48.898Z,9.90
2018-04-30T03:29:19.546Z,10.00
2018-04-30T03:31:47.356Z,9.90
2018-04-30T03:34:16.026Z,10.10
2018-04-30T03:36:44.525Z,10.10
2018-04-30T03:39:13.050Z,10.00
2018-04-30T03:41:40.748Z,10.00
2018-04-30T03:44:09.300Z,9.80
2018-04-30T03:46:37.080Z,10.00
2018-04-30T03:49:04.707Z,10.00
2018-04-30T03:51:32.478Z,10.00
2018-04-30T03:54:00.201Z,9.90
2018-04-30T03:56:27.889Z,9.90
2018-04-30T03:58:56.296Z,10.00
2018-04-30T04:01:36.010Z,10.10
2018-04-30T04:04:15.565Z,10.00
2018-04-30T04:06:53.051Z,10.10
2018-04-30T04:09:20.816Z,10.10
2018-04-30T04:11:48.490Z,9.90
2018-04-30T04:14:16.334Z,10.00
2018-04-30T04:16:44.133Z,10.10
2018-04-30T04:19:11.881Z,10.50
2018-04-30T04:21:40.957Z,10.40
2018-04-30T04:24:08.637Z,10.00
2018-04-30T04:26:36.459Z,10.10
2018-04-30T04:29:05.069Z,10.40
2018-04-30T04:31:33.873Z,10.20
2018-04-30T04:34:04.120Z,10.20
2018-04-30T04:36:34.637Z,10.30
2018-04-30T04:39:02.243Z,10.00
2018-04-30T04:41:29.961Z,10.40
2018-04-30T04:43:58.394Z,10.30
2018-04-30T04:46:26.093Z,10.40
2018-04-30T04:48:53.813Z,10.20
2018-04-30T04:51:22.293Z,10.40
2018-04-30T04:53:50.848Z,10.30
2018-04-30T04:56:18.598Z,10.50
2018-04-30T04:58:46.363Z,10.40
2018-04-30T05:01:14.070Z,10.40
2018-04-30T05:03:43.458Z,10.00
2018-04-30T05:06:11.342Z,10.00
2018-04-30T05:08:40.335Z,10.50
2018-04-30T05:11:08.780Z,10.50
2018-04-30T05:13:36.502Z,10.50
2018-04-30T05:16:05.174Z,10.50
2018-04-30T05:18:35.930Z,10.30
2018-04-30T05:21:03.646Z,10.40
2018-04-30T05:23:34.970Z,10.00
2018-04-30T05:26:02.761Z,10.00
2018-04-30T05:28:30.452Z,10.10
2018-04-30T05:30:58.211Z,10.40
2018-04-30T05:33:26.712Z,10.40
2018-04-30T05:35:54.476Z,10.40
2018-04-30T05:38:22.159Z,10.50
2018-04-30T05:40:50.590Z,10.40
2018-04-30T05:43:19.837Z,10.80
2018-04-30T05:45:47.620Z,10.70
2018-04-30T05:48:15.378Z,10.60
2018-04-30T05:50:43.294Z,10.20
2018-04-30T05:53:11.029Z,10.40
2018-04-30T05:55:38.687Z,10.50
2018-04-30T05:58:06.301Z,10.40
2018-04-30T06:00:33.901Z,10.40
2018-04-30T06:03:01.534Z,10.40
2018-04-30T06:05:29.202Z,10.30
2018-04-30T06:07:56.887Z,10.20
2018-04-30T06:10:24.495Z,10.20
2018-04-30T06:12:52.112Z,9.90
2018-04-30T06:15:19.739Z,10.10
2018-04-30T06:17:47.409Z,9.90
2018-04-30T06:20:14.995Z,10.10
2018-04-30T06:22:43.353Z,10.10
2018-04-30T06:25:12.676Z,10.40
2018-04-30T06:27:40.285Z,10.40
2018-04-30T06:30:07.880Z,10.30
2018-04-30T06:32:35.533Z,9.90
2018-04-30T06:35:03.089Z,10.10
2018-04-30T06:37:30.798Z,9.90
2018-04-30T06:39:58.388Z,10.10
2018-04-30T06:42:26.015Z,10.40
2018-04-30T06:44:53.575Z,10.40
2018-04-30T06:47:21.274Z,10.40
2018-04-30T06:49:48.953Z,10.80
2018-04-30T06:52:16.560Z,10.60
2018-04-30T06:54:44.188Z,10.60
2018-04-30T06:57:11.761Z,10.50
2018-04-30T06:59:39.393Z,10.50
2018-04-30T07:02:06.991Z,10.40
2018-04-30T07:04:34.606Z,10.20
2018-04-30T07:07:02.193Z,10.20
2018-04-30T07:09:30.040Z,10.40
2018-04-30T07:11:57.551Z,10.50
2018-04-30T07:14:25.139Z,10.50
2018-04-30T07:16:52.761Z,10.50
2018-04-30T07:19:20.409Z,10.50
2018-04-30T07:21:48.071Z,10.30
2018-04-30T07:24:15.631Z,10.40
2018-04-30T07:26:43.293Z,10.30
2018-04-30T07:29:10.917Z,10.30
2018-04-30T07:31:42.266Z,10.50
2018-04-30T07:34:09.967Z,10.30
2018-04-30T07:36:37.562Z,10.40
2018-04-30T07:39:06.246Z,10.20
2018-04-30T07:41:33.870Z,10.40
2018-04-30T07:44:01.473Z,10.30
2018-04-30T07:46:29.884Z,10.20
2018-04-30T07:48:57.537Z,10.40
2018-04-30T07:51:25.200Z,10.40
2018-04-30T07:53:53.065Z,10.30
2018-04-30T07:56:21.449Z,10.50
2018-04-30T07:58:49.065Z,10.30
2018-04-30T08:01:16.721Z,10.20
2018-04-30T08:03:44.358Z,10.60
2018-04-30T08:06:12.016Z,10.30
2018-04-30T08:08:39.642Z,10.60
2018-04-30T08:11:07.323Z,10.40
2018-04-30T08:13:35.035Z,10.40
2018-04-30T08:16:03.247Z,10.50
2018-04-30T08:18:30.919Z,10.80
2018-04-30T08:20:58.570Z,10.80
2018-04-30T08:23:26.189Z,10.80
2018-04-30T08:25:53.845Z,10.80
2018-04-30T08:28:21.516Z,10.80
2018-04-30T08:30:49.178Z,10.80
2018-04-30T08:33:16.825Z,10.90
2018-04-30T08:35:44.599Z,11.10
2018-04-30T08:38:13.199Z,11.30
2018-04-30T08:40:40.889Z,11.30
2018-04-30T08:43:20.117Z,11.40
2018-04-30T08:45:55.214Z,11.70
2018-04-30T08:48:30.844Z,11.50
2018-04-30T08:53:55.235Z,11.90
2018-04-30T08:56:27.779Z,11.60
2018-04-30T08:58:55.601Z,11.90
2018-04-30T09:01:23.213Z,11.90
2018-04-30T09:03:50.954Z,11.80
2018-04-30T09:06:18.603Z,11.70
2018-04-30T09:08:46.275Z,11.70
2018-04-30T09:11:13.966Z,11.60
2018-04-30T09:13:41.624Z,11.60
2018-04-30T09:16:09.229Z,11.50
2018-04-30T09:18:36.965Z,11.40
2018-04-30T09:21:05.396Z,11.40
2018-04-30T09:23:33.037Z,11.50
2018-04-30T09:26:00.689Z,11.70
2018-04-30T09:28:28.331Z,11.70
2018-04-30T09:30:57.334Z,11.60
2018-04-30T09:33:24.969Z,11.50
2018-04-30T09:35:53.394Z,11.40
2018-04-30T09:38:20.974Z,11.40
2018-04-30T09:40:48.646Z,11.40
2018-04-30T09:43:16.291Z,11.40
2018-04-30T09:45:43.943Z,11.00
2018-04-30T09:48:11.557Z,11.30
2018-04-30T09:50:39.264Z,11.10
2018-04-30T09:53:06.931Z,11.10
2018-04-30T09:55:34.576Z,11.00
2018-04-30T09:58:02.216Z,11.20
2018-04-30T10:00:29.880Z,11.10
2018-04-30T10:02:57.568Z,11.00
2018-04-30T10:05:25.253Z,11.40
2018-04-30T10:07:52.884Z,11.40
2018-04-30T10:10:20.590Z,11.40
2018-04-30T10:12:48.293Z,11.40
2018-04-30T10:15:17.720Z,11.30
2018-04-30T10:17:45.427Z,11.10
2018-04-30T10:20:13.086Z,10.90
2018-04-30T10:22:40.718Z,11.00
2018-04-30T10:25:08.379Z,11.00
2018-04-30T10:27:36.057Z,11.10
2018-04-30T10:30:03.729Z,10.90
2018-04-30T10:32:31.386Z,11.10
2018-04-30T10:34:59.048Z,10.90
2018-04-30T10:37:26.721Z,11.00
2018-04-30T10:39:54.387Z,11.10
2018-04-30T10:42:22.843Z,11.00
2018-04-30T10:44:50.480Z,11.00
2018-04-30T10:47:18.220Z,11.20
2018-04-30T10:49:45.880Z,11.20
2018-04-30T10:52:13.491Z,10.90
2018-04-30T10:54:41.107Z,11.10
2018-04-30T10:57:08.741Z,11.00
2018-04-30T10:59:36.508Z,10.80
2018-04-30T11:02:04.191Z,10.60
2018-04-30T11:04:32.600Z,10.70
2018-04-30T11:13:04.022Z,10.60
2018-04-30T11:15:33.868Z,10.50
2018-04-30T11:18:01.529Z,10.70
2018-04-30T11:20:29.982Z,10.90
2018-04-30T11:22:57.614Z,10.80
2018-04-30T11:25:25.259Z,10.50
2018-04-30T11:27:53.009Z,10.70
2018-04-30T11:30:20.653Z,10.60
2018-04-30T11:32:49.122Z,10.70
2018-04-30T11:35:17.641Z,10.70
2018-04-30T11:37:45.313Z,10.50
2018-04-30T11:40:12.921Z,10.70
2018-04-30T11:42:40.636Z,10.70
2018-04-30T11:45:08.303Z,10.50
2018-04-30T11:47:35.969Z,10.30
2018-04-30T11:50:03.687Z,10.70
2018-04-30T11:52:32.139Z,10.50
2018-04-30T11:55:00.787Z,10.70
2018-04-30T11:57:32.371Z,10.40
2018-04-30T12:00:00.032Z,10.40
2018-04-30T12:02:27.754Z,10.40
2018-04-30T12:04:55.566Z,10.30
2018-04-30T12:07:24.936Z,10.30
2018-04-30T12:09:52.651Z,10.40
2018-04-30T12:12:22.926Z,10.40
2018-04-30T12:14:50.592Z,10.50
2018-04-30T12:17:18.306Z,9.90
2018-04-30T12:19:46.696Z,9.60
2018-04-30T12:22:14.389Z,9.80
2018-04-30T12:24:42.021Z,9.70
2018-04-30T12:27:09.685Z,9.50
2018-04-30T12:29:38.128Z,9.40
2018-04-30T12:32:08.792Z,9.20
2018-04-30T12:34:36.403Z,9.20
2018-04-30T12:37:04.085Z,8.90
2018-04-30T12:39:31.720Z,8.60
2018-04-30T12:42:00.306Z,8.80
2018-04-30T12:44:27.922Z,8.80
2018-04-30T12:46:56.306Z,8.30
2018-04-30T12:49:24.025Z,8.50
2018-04-30T12:51:51.685Z,8.20
2018-04-30T12:54:19.358Z,8.20
2018-04-30T12:56:47.667Z,8.30
2018-04-30T12:59:27.068Z,8.40
2018-04-30T13:02:04.445Z,8.00
2018-04-30T13:04:37.409Z,8.10
2018-04-30T13:07:05.919Z,8.30
2018-04-30T13:09:33.608Z,8.50
2018-04-30T13:14:35.749Z,8.60
2018-04-30T13:17:03.367Z,8.70
2018-04-30T13:19:31.053Z,8.50
2018-04-30T13:21:59.490Z,8.40
2018-04-30T13:24:27.231Z,8.30
2018-04-30T13:27:05.063Z,8.80
2018-04-30T13:29:32.645Z,8.70
2018-04-30T13:32:00.317Z,8.40
2018-04-30T13:34:29.431Z,8.30
2018-04-30T13:37:00.676Z,8.50
2018-04-30T13:39:28.290Z,8.60
2018-04-30T13:41:55.916Z,8.50
2018-04-30T13:44:24.350Z,8.30
2018-04-30T13:46:52.010Z,8.30
2018-04-30T13:49:23.280Z,8.50
2018-04-30T13:54:55.416Z,8.30
2018-04-30T13:57:25.140Z,8.40
2018-04-30T13:59:52.827Z,8.30
2018-04-30T14:02:20.655Z,8.10
2018-04-30T14:04:48.293Z,7.90
2018-04-30T14:07:15.965Z,8.20
2018-04-30T14:10:07.718Z,8.10
2018-04-30T14:12:35.410Z,8.00
2018-04-30T14:17:36.608Z,8.20
2018-04-30T14:20:04.383Z,8.00
2018-04-30T14:22:32.176Z,8.20
2018-04-30T14:24:59.878Z,8.00
2018-04-30T14:27:27.559Z,8.20
2018-04-30T14:29:56.147Z,8.20
2018-04-30T14:32:25.337Z,8.00
2018-04-30T14:34:53.529Z,7.90
2018-04-30T14:37:22.001Z,7.90
2018-04-30T14:39:49.737Z,7.90
2018-04-30T14:42:17.465Z,8.00
2018-04-30T14:44:45.909Z,8.30
2018-04-30T14:47:13.567Z,7.90
2018-04-30T14:49:41.226Z,8.20
2018-04-30T14:52:08.895Z,7.80
2018-04-30T14:54:37.707Z,7.90
2018-04-30T14:57:05.372Z,7.40
2018-04-30T14:59:33.023Z,7.70
2018-04-30T15:02:00.663Z,7.40
2018-04-30T15:04:28.515Z,7.50
2018-04-30T15:06:56.205Z,7.50
2018-04-30T15:09:23.888Z,7.40
2018-04-30T15:11:51.519Z,7.60
2018-04-30T15:14:19.150Z,7.50
2018-04-30T15:16:47.539Z,7.60
2018-04-30T15:19:15.212Z,7.50
2018-04-30T15:21:42.934Z,7.80
2018-04-30T15:24:10.577Z,7.80
2018-04-30T15:26:38.272Z,7.70
2018-04-30T15:29:05.981Z,7.70
2018-04-30T15:31:33.688Z,7.70
2018-04-30T15:34:01.325Z,7.70
2018-04-30T15:36:29.001Z,7.60
2018-04-30T15:38:59.692Z,7.80
2018-04-30T15:41:27.336Z,8.00
2018-04-30T15:43:55.069Z,7.50
2018-04-30T15:46:22.748Z,7.50
2018-04-30T15:48:50.412Z,7.50
2018-04-30T15:51:18.950Z,7.50
2018-04-30T15:53:47.058Z,7.40
2018-04-30T17:11:02.114Z,7.20
2018-04-30T17:13:30.555Z,6.90
2018-04-30T17:15:58.207Z,6.90
2018-04-30T17:18:26.619Z,7.00
2018-04-30T17:20:54.291Z,7.10
2018-04-30T17:23:21.951Z,7.20
2018-04-30T17:25:49.631Z,7.10
2018-04-30T17:31:09.394Z,7.10
2018-04-30T17:33:39.623Z,7.10
2018-04-30T17:36:11.091Z,7.10
2018-04-30T17:38:40.467Z,7.10
2018-04-30T17:41:08.667Z,7.20
2018-04-30T17:43:41.376Z,7.20
2018-04-30T17:46:20.762Z,7.10
2018-04-30T17:48:51.450Z,7.10
2018-04-30T17:51:20.700Z,7.00
2018-04-30T17:54:07.901Z,7.10
2018-04-30T17:56:36.314Z,7.10
2018-04-30T17:59:11.712Z,7.10
2018-04-30T18:01:41.208Z,7.10
2018-04-30T18:06:51.625Z,7.10
2018-04-30T18:09:19.291Z,7.20
2018-04-30T18:14:24.775Z,7.20
2018-04-30T18:16:54.386Z,6.80
2018-04-30T18:19:22.793Z,7.00
2018-04-30T18:21:50.445Z,6.90
2018-04-30T18:24:19.237Z,6.80
2018-04-30T18:26:48.108Z,6.90
2018-04-30T18:29:16.303Z,6.90
2018-04-30T18:31:43.935Z,6.70
2018-04-30T18:34:12.213Z,6.70
2018-04-30T18:36:42.846Z,6.90
2018-04-30T18:39:10.497Z,6.70
2018-04-30T18:41:38.115Z,6.50
2018-04-30T18:44:05.816Z,6.80
2018-04-30T18:46:35.207Z,6.80
2018-04-30T18:49:02.898Z,6.80
2018-04-30T18:51:30.559Z,6.80
2018-04-30T18:53:58.213Z,6.80
2018-04-30T18:56:26.153Z,6.60
2018-04-30T18:58:53.981Z,6.70
2018-04-30T19:01:22.363Z,6.70
2018-04-30T19:03:50.786Z,7.00
2018-04-30T19:06:18.428Z,6.90
2018-04-30T19:08:53.725Z,6.90
2018-04-30T19:11:22.145Z,6.70
2018-04-30T19:13:49.807Z,6.90
2018-04-30T19:16:17.440Z,6.50
2018-04-30T19:18:46.367Z,6.60
2018-04-30T19:21:13.960Z,6.60
2018-04-30T19:26:14.151Z,6.70
2018-04-30T19:28:42.787Z,6.90
2018-04-30T19:31:10.405Z,6.80
2018-04-30T19:33:38.031Z,6.80
2018-04-30T19:36:07.858Z,6.70
2018-04-30T19:38:36.188Z,6.70
2018-04-30T19:41:04.759Z,6.60
2018-04-30T19:43:32.469Z,6.70
2018-04-30T19:46:00.898Z,6.90
2018-04-30T19:48:28.498Z,6.80
2018-04-30T19:50:56.964Z,6.70
2018-04-30T19:53:24.617Z,6.90
2018-04-30T19:55:52.301Z,6.80
2018-04-30T19:58:20.907Z,6.80
2018-04-30T20:00:51.025Z,6.90
2018-04-30T20:03:18.669Z,6.90
2018-04-30T20:05:46.293Z,6.80
2018-04-30T20:08:14.651Z,6.80
2018-04-30T20:10:42.860Z,6.80
2018-04-30T20:13:10.467Z,6.80
2018-04-30T20:15:38.840Z,6.70
2018-04-30T20:18:10.190Z,6.50
2018-04-30T20:20:42.841Z,6.60
2018-04-30T20:23:14.380Z,6.60
2018-04-30T20:25:44.912Z,6.60
2018-04-30T20:28:13.326Z,6.80
2018-04-30T20:30:41.354Z,6.50
2018-04-30T20:33:10.899Z,6.60
2018-04-30T20:35:43.365Z,6.60
2018-04-30T20:38:10.987Z,6.60
2018-04-30T20:40:38.624Z,6.60
2018-04-30T20:43:06.227Z,6.60
2018-04-30T20:45:33.860Z,6.40
2018-04-30T20:48:09.063Z,6.60
2018-04-30T20:50:37.421Z,6.30
2018-04-30T20:53:05.035Z,6.30
2018-04-30T20:55:32.615Z,6.40
2018-04-30T20:58:00.300Z,6.30
2018-04-30T21:00:31.839Z,6.40
2018-04-30T21:02:59.480Z,6.40
2018-04-30T21:05:27.060Z,6.30
2018-04-30T21:07:54.662Z,6.40
2018-04-30T21:10:22.273Z,6.40
2018-04-30T21:12:49.920Z,6.40
2018-04-30T21:15:17.455Z,6.40
2018-04-30T21:17:45.848Z,6.60
2018-04-30T21:20:13.390Z,6.60
2018-04-30T21:22:41.754Z,6.60
2018-04-30T21:25:09.298Z,6.60
2018-04-30T21:27:36.903Z,6.60
2018-04-30T21:30:04.515Z,6.60
2018-04-30T21:32:32.182Z,6.40
2018-04-30T21:34:59.748Z,6.60
2018-04-30T21:37:29.029Z,6.60
2018-04-30T21:39:56.558Z,6.60
2018-04-30T21:42:24.221Z,6.40
2018-04-30T21:44:51.758Z,6.40
2018-04-30T21:47:20.669Z,6.40
2018-04-30T21:49:48.217Z,6.40
2018-04-30T21:52:15.813Z,6.30
2018-04-30T21:54:44.508Z,6.60
2018-04-30T21:57:12.068Z,6.60
2018-04-30T21:59:39.694Z,6.40
2018-04-30T22:02:07.339Z,6.40
2018-04-30T22:04:35.681Z,6.40
2018-04-30T22:07:03.312Z,6.40
2018-04-30T22:09:31.678Z,6.60
2018-04-30T22:11:59.289Z,6.60
2018-04-30T22:14:26.892Z,6.40
2018-04-30T22:16:55.332Z,6.40
2018-04-30T22:19:23.678Z,6.40
2018-04-30T22:21:51.260Z,6.40
2018-04-30T22:24:18.808Z,6.70
2018-04-30T22:26:46.416Z,6.40
2018-04-30T22:29:14.790Z,6.40
2018-04-30T22:31:43.140Z,6.40
2018-04-30T22:34:10.699Z,6.40
2018-04-30T22:36:38.315Z,6.30
2018-04-30T22:39:09.798Z,6.40
2018-04-30T22:41:37.400Z,6.30
2018-04-30T22:44:04.992Z,6.30
2018-04-30T22:46:32.587Z,6.30
2018-04-30T22:49:00.126Z,6.40
2018-04-30T22:51:27.693Z,6.30
2018-04-30T22:53:55.304Z,6.40
2018-04-30T22:56:23.667Z,6.40
2018-04-30T22:58:51.305Z,6.30
2018-04-30T23:01:20.609Z,6.40
2018-04-30T23:03:48.171Z,6.30
2018-04-30T23:06:15.798Z,6.40
2018-04-30T23:08:43.359Z,6.20
2018-04-30T23:11:10.977Z,6.30
2018-04-30T23:13:38.569Z,6.30
2018-04-30T23:16:06.194Z,6.40
2018-04-30T23:18:33.778Z,6.50
2018-04-30T23:21:01.367Z,6.30
2018-04-30T23:23:28.967Z,6.40
2018-04-30T23:25:56.599Z,6.40
2018-04-30T23:28:24.214Z,6.20
2018-04-30T23:30:54.338Z,6.20
2018-04-30T23:33:22.703Z,5.90
2018-04-30T23:35:51.116Z,6.40
2018-04-30T23:38:18.724Z,6.30
2018-04-30T23:40:46.295Z,6.30
2018-04-30T23:43:13.857Z,6.30
2018-04-30T23:45:42.261Z,6.30
2018-04-30T23:48:10.692Z,6.10
2018-04-30T23:50:38.324Z,6.10
2018-04-30T23:53:05.931Z,6.10
2018-04-30T23:55:33.545Z,6.10
2018-04-30T23:58:01.095Z,6.30
